Terminal Aerodrome Forecast
Issued by NWS

Home | Current Version | Previous Version | Text Only | Print | Product List | Glossary Off
Versions: 1 2 3 4 5 6 7 8 9 10 11 12 13 14 15 16 17 18 19 20 21 22 23 24 25 26 27

108
FTUS42 KMHX 212323
TAFPGV
TAF
KPGV 212323Z 2200/2224 VRB04KT P6SM VCTS BKN040CB
     FM220300 VRB04KT P6SM VCSH BKN015
      TEMPO 2203/2206 4SM TS OVC007CB
     FM220600 VRB03KT P6SM BKN007
     FM221600 36006KT 5SM -SHRA OVC025
      AMD LTD TO CLD VIS AND WIND=

USA.gov is the U.S. government's official web portal to all federal, state and local government web resources and services.